sensor_id;sensor_type;location;lat;lon;timestamp;P1;durP1;ratioP1;P2;durP2;ratioP2
23782;SDS011;12071;50.850;4.446;2023-09-19T00:00:37;13.43;;;2.28;;
23782;SDS011;12071;50.850;4.446;2023-09-19T00:03:03;7.22;;;2.03;;
23782;SDS011;12071;50.850;4.446;2023-09-19T00:05:33;11.05;;;2.03;;
23782;SDS011;12071;50.850;4.446;2023-09-19T00:08:00;14.02;;;2.00;;
23782;SDS011;12071;50.850;4.446;2023-09-19T00:10:26;11.68;;;2.22;;
23782;SDS011;12071;50.850;4.446;2023-09-19T00:12:55;14.00;;;2.55;;
23782;SDS011;12071;50.850;4.446;2023-09-19T00:15:22;11.00;;;2.50;;
23782;SDS011;12071;50.850;4.446;2023-09-19T00:17:48;14.50;;;1.90;;
23782;SDS011;12071;50.850;4.446;2023-09-19T00:20:17;10.55;;;2.38;;
23782;SDS011;12071;50.850;4.446;2023-09-19T00:22:44;13.75;;;2.25;;
23782;SDS011;12071;50.850;4.446;2023-09-19T00:25:10;12.52;;;2.00;;
23782;SDS011;12071;50.850;4.446;2023-09-19T00:27:37;11.90;;;2.33;;
23782;SDS011;12071;50.850;4.446;2023-09-19T00:30:08;11.55;;;2.17;;
23782;SDS011;12071;50.850;4.446;2023-09-19T00:32:41;15.90;;;1.80;;
23782;SDS011;12071;50.850;4.446;2023-09-19T00:35:07;11.00;;;1.80;;
23782;SDS011;12071;50.850;4.446;2023-09-19T00:37:36;11.88;;;1.85;;
23782;SDS011;12071;50.850;4.446;2023-09-19T00:40:04;10.68;;;1.95;;
23782;SDS011;12071;50.850;4.446;2023-09-19T00:42:35;12.93;;;2.17;;
23782;SDS011;12071;50.850;4.446;2023-09-19T00:45:05;8.07;;;1.88;;
23782;SDS011;12071;50.850;4.446;2023-09-19T00:47:34;11.68;;;2.13;;
23782;SDS011;12071;50.850;4.446;2023-09-19T00:50:00;10.32;;;2.10;;
23782;SDS011;12071;50.850;4.446;2023-09-19T00:52:28;13.25;;;2.30;;
23782;SDS011;12071;50.850;4.446;2023-09-19T00:54:54;10.65;;;1.92;;
23782;SDS011;12071;50.850;4.446;2023-09-19T00:57:25;16.40;;;3.40;;
23782;SDS011;12071;50.850;4.446;2023-09-19T00:59:50;14.20;;;2.30;;
23782;SDS011;12071;50.850;4.446;2023-09-19T01:02:20;10.00;;;1.75;;
23782;SDS011;12071;50.850;4.446;2023-09-19T01:04:47;12.35;;;2.38;;
23782;SDS011;12071;50.850;4.446;2023-09-19T01:07:13;14.25;;;2.42;;
23782;SDS011;12071;50.850;4.446;2023-09-19T01:09:40;13.68;;;2.00;;
23782;SDS011;12071;50.850;4.446;2023-09-19T01:12:07;11.10;;;1.98;;
23782;SDS011;12071;50.850;4.446;2023-09-19T01:14:55;11.23;;;2.30;;
23782;SDS011;12071;50.850;4.446;2023-09-19T01:17:36;15.52;;;2.38;;
23782;SDS011;12071;50.850;4.446;2023-09-19T01:23:05;10.68;;;2.00;;
23782;SDS011;12071;50.850;4.446;2023-09-19T01:25:42;13.02;;;2.53;;
23782;SDS011;12071;50.850;4.446;2023-09-19T01:31:04;10.38;;;2.15;;
23782;SDS011;12071;50.850;4.446;2023-09-19T01:36:25;10.88;;;2.30;;
23782;SDS011;12071;50.850;4.446;2023-09-19T01:38:52;15.55;;;2.42;;
23782;SDS011;12071;50.850;4.446;2023-09-19T01:41:28;13.55;;;2.60;;
23782;SDS011;12071;50.850;4.446;2023-09-19T01:44:03;12.15;;;2.42;;
23782;SDS011;12071;50.850;4.446;2023-09-19T01:46:34;13.00;;;2.42;;
23782;SDS011;12071;50.850;4.446;2023-09-19T01:49:13;16.40;;;2.08;;
23782;SDS011;12071;50.850;4.446;2023-09-19T01:52:02;13.60;;;2.28;;
23782;SDS011;12071;50.850;4.446;2023-09-19T01:54:46;17.33;;;2.40;;
23782;SDS011;12071;50.850;4.446;2023-09-19T01:57:17;14.98;;;2.70;;
23782;SDS011;12071;50.850;4.446;2023-09-19T02:00:02;10.90;;;2.08;;
23782;SDS011;12071;50.850;4.446;2023-09-19T02:02:34;15.82;;;2.17;;
23782;SDS011;12071;50.850;4.446;2023-09-19T02:05:02;15.38;;;2.30;;
23782;SDS011;12071;50.850;4.446;2023-09-19T02:07:29;10.02;;;2.63;;
23782;SDS011;12071;50.850;4.446;2023-09-19T02:09:56;13.73;;;2.35;;
23782;SDS011;12071;50.850;4.446;2023-09-19T02:12:24;17.83;;;2.55;;
23782;SDS011;12071;50.850;4.446;2023-09-19T02:14:49;12.50;;;2.30;;
23782;SDS011;12071;50.850;4.446;2023-09-19T02:17:15;14.75;;;2.83;;
23782;SDS011;12071;50.850;4.446;2023-09-19T02:19:42;15.50;;;2.40;;
23782;SDS011;12071;50.850;4.446;2023-09-19T02:22:08;10.48;;;1.80;;
23782;SDS011;12071;50.850;4.446;2023-09-19T02:24:35;14.85;;;2.35;;
23782;SDS011;12071;50.850;4.446;2023-09-19T02:27:04;14.32;;;2.35;;
23782;SDS011;12071;50.850;4.446;2023-09-19T02:29:30;13.70;;;2.70;;
23782;SDS011;12071;50.850;4.446;2023-09-19T02:31:56;14.30;;;2.33;;
23782;SDS011;12071;50.850;4.446;2023-09-19T02:34:26;16.85;;;2.47;;
23782;SDS011;12071;50.850;4.446;2023-09-19T02:36:52;11.98;;;2.45;;
23782;SDS011;12071;50.850;4.446;2023-09-19T02:39:20;14.85;;;2.42;;
23782;SDS011;12071;50.850;4.446;2023-09-19T02:41:45;15.05;;;2.53;;
23782;SDS011;12071;50.850;4.446;2023-09-19T02:44:11;12.95;;;2.13;;
23782;SDS011;12071;50.850;4.446;2023-09-19T02:46:37;13.23;;;2.35;;
23782;SDS011;12071;50.850;4.446;2023-09-19T02:49:03;17.65;;;2.50;;
23782;SDS011;12071;50.850;4.446;2023-09-19T02:51:33;18.90;;;2.75;;
23782;SDS011;12071;50.850;4.446;2023-09-19T02:53:59;13.27;;;2.10;;
23782;SDS011;12071;50.850;4.446;2023-09-19T02:56:25;12.50;;;2.10;;
23782;SDS011;12071;50.850;4.446;2023-09-19T02:58:50;12.35;;;2.25;;
23782;SDS011;12071;50.850;4.446;2023-09-19T03:01:16;11.32;;;1.90;;
23782;SDS011;12071;50.850;4.446;2023-09-19T03:03:43;10.15;;;2.92;;
23782;SDS011;12071;50.850;4.446;2023-09-19T03:06:11;11.10;;;2.20;;
23782;SDS011;12071;50.850;4.446;2023-09-19T03:08:38;12.73;;;2.70;;
23782;SDS011;12071;50.850;4.446;2023-09-19T03:11:05;9.35;;;1.85;;
23782;SDS011;12071;50.850;4.446;2023-09-19T03:13:31;10.70;;;2.40;;
23782;SDS011;12071;50.850;4.446;2023-09-19T03:15:57;11.15;;;2.47;;
23782;SDS011;12071;50.850;4.446;2023-09-19T03:18:23;14.07;;;2.80;;
23782;SDS011;12071;50.850;4.446;2023-09-19T03:20:55;15.50;;;2.83;;
23782;SDS011;12071;50.850;4.446;2023-09-19T03:23:21;13.80;;;3.25;;
23782;SDS011;12071;50.850;4.446;2023-09-19T03:25:47;8.13;;;1.90;;
23782;SDS011;12071;50.850;4.446;2023-09-19T03:28:13;11.40;;;2.45;;
23782;SDS011;12071;50.850;4.446;2023-09-19T03:30:42;7.55;;;1.70;;
23782;SDS011;12071;50.850;4.446;2023-09-19T03:33:09;10.57;;;2.03;;
23782;SDS011;12071;50.850;4.446;2023-09-19T03:35:37;9.63;;;1.90;;
23782;SDS011;12071;50.850;4.446;2023-09-19T03:38:04;10.95;;;2.05;;
23782;SDS011;12071;50.850;4.446;2023-09-19T03:40:30;10.88;;;1.75;;
23782;SDS011;12071;50.850;4.446;2023-09-19T03:42:56;12.68;;;2.05;;
23782;SDS011;12071;50.850;4.446;2023-09-19T03:45:27;11.87;;;1.87;;
23782;SDS011;12071;50.850;4.446;2023-09-19T03:47:54;14.05;;;2.63;;
23782;SDS011;12071;50.850;4.446;2023-09-19T03:50:19;10.90;;;2.38;;
23782;SDS011;12071;50.850;4.446;2023-09-19T03:52:45;13.95;;;2.17;;
23782;SDS011;12071;50.850;4.446;2023-09-19T03:55:12;13.38;;;2.25;;
23782;SDS011;12071;50.850;4.446;2023-09-19T03:57:38;11.48;;;2.42;;
23782;SDS011;12071;50.850;4.446;2023-09-19T04:00:04;12.55;;;2.28;;
23782;SDS011;12071;50.850;4.446;2023-09-19T04:02:36;15.23;;;2.08;;
23782;SDS011;12071;50.850;4.446;2023-09-19T04:05:03;16.48;;;3.42;;
23782;SDS011;12071;50.850;4.446;2023-09-19T04:07:32;12.05;;;2.15;;
23782;SDS011;12071;50.850;4.446;2023-09-19T04:09:59;10.68;;;2.28;;
23782;SDS011;12071;50.850;4.446;2023-09-19T04:12:25;15.75;;;2.83;;
23782;SDS011;12071;50.850;4.446;2023-09-19T04:14:50;12.23;;;2.15;;
23782;SDS011;12071;50.850;4.446;2023-09-19T04:17:16;15.23;;;2.80;;
23782;SDS011;12071;50.850;4.446;2023-09-19T04:19:43;16.67;;;2.40;;
23782;SDS011;12071;50.850;4.446;2023-09-19T04:22:10;13.65;;;2.67;;
23782;SDS011;12071;50.850;4.446;2023-09-19T04:24:37;12.25;;;2.05;;
23782;SDS011;12071;50.850;4.446;2023-09-19T04:27:03;14.77;;;2.75;;
23782;SDS011;12071;50.850;4.446;2023-09-19T04:32:03;10.07;;;2.00;;
23782;SDS011;12071;50.850;4.446;2023-09-19T04:34:29;10.65;;;2.03;;
23782;SDS011;12071;50.850;4.446;2023-09-19T04:36:55;15.05;;;2.15;;
23782;SDS011;12071;50.850;4.446;2023-09-19T04:39:23;13.27;;;2.78;;
23782;SDS011;12071;50.850;4.446;2023-09-19T04:41:51;12.20;;;2.15;;
23782;SDS011;12071;50.850;4.446;2023-09-19T04:44:16;11.68;;;2.25;;
23782;SDS011;12071;50.850;4.446;2023-09-19T04:46:43;16.02;;;2.30;;
23782;SDS011;12071;50.850;4.446;2023-09-19T04:49:12;10.63;;;2.08;;
23782;SDS011;12071;50.850;4.446;2023-09-19T04:51:38;9.25;;;2.15;;
23782;SDS011;12071;50.850;4.446;2023-09-19T04:54:05;10.73;;;2.20;;
23782;SDS011;12071;50.850;4.446;2023-09-19T04:56:31;9.25;;;2.00;;
23782;SDS011;12071;50.850;4.446;2023-09-19T04:58:58;12.00;;;2.15;;
23782;SDS011;12071;50.850;4.446;2023-09-19T05:01:24;10.98;;;2.22;;
23782;SDS011;12071;50.850;4.446;2023-09-19T05:03:50;9.98;;;2.00;;
23782;SDS011;12071;50.850;4.446;2023-09-19T05:06:18;14.07;;;2.30;;
23782;SDS011;12071;50.850;4.446;2023-09-19T05:08:47;20.00;;;2.38;;
23782;SDS011;12071;50.850;4.446;2023-09-19T05:11:20;11.80;;;2.17;;
23782;SDS011;12071;50.850;4.446;2023-09-19T05:13:49;9.73;;;1.90;;
23782;SDS011;12071;50.850;4.446;2023-09-19T05:16:15;14.57;;;2.53;;
23782;SDS011;12071;50.850;4.446;2023-09-19T05:18:41;10.50;;;2.00;;
23782;SDS011;12071;50.850;4.446;2023-09-19T05:21:07;12.23;;;2.33;;
23782;SDS011;12071;50.850;4.446;2023-09-19T05:23:33;11.25;;;2.00;;
23782;SDS011;12071;50.850;4.446;2023-09-19T05:25:59;12.98;;;2.47;;
23782;SDS011;12071;50.850;4.446;2023-09-19T05:28:25;10.18;;;2.05;;
23782;SDS011;12071;50.850;4.446;2023-09-19T05:30:51;12.82;;;2.15;;
23782;SDS011;12071;50.850;4.446;2023-09-19T05:33:18;10.00;;;1.92;;
23782;SDS011;12071;50.850;4.446;2023-09-19T05:35:44;11.57;;;2.40;;
23782;SDS011;12071;50.850;4.446;2023-09-19T05:38:12;11.93;;;2.10;;
23782;SDS011;12071;50.850;4.446;2023-09-19T05:40:39;11.40;;;1.88;;
23782;SDS011;12071;50.850;4.446;2023-09-19T05:43:08;17.73;;;2.55;;
23782;SDS011;12071;50.850;4.446;2023-09-19T05:45:34;13.40;;;2.33;;
23782;SDS011;12071;50.850;4.446;2023-09-19T05:48:10;10.15;;;2.50;;
23782;SDS011;12071;50.850;4.446;2023-09-19T05:50:41;15.43;;;2.33;;
23782;SDS011;12071;50.850;4.446;2023-09-19T05:53:07;17.38;;;2.92;;
23782;SDS011;12071;50.850;4.446;2023-09-19T05:55:36;12.65;;;2.10;;
23782;SDS011;12071;50.850;4.446;2023-09-19T05:58:01;13.20;;;2.40;;
23782;SDS011;12071;50.850;4.446;2023-09-19T06:00:28;12.38;;;2.13;;
23782;SDS011;12071;50.850;4.446;2023-09-19T06:02:57;13.57;;;1.92;;
23782;SDS011;12071;50.850;4.446;2023-09-19T06:05:27;14.93;;;2.53;;
23782;SDS011;12071;50.850;4.446;2023-09-19T06:07:53;15.40;;;2.35;;
23782;SDS011;12071;50.850;4.446;2023-09-19T06:10:19;10.32;;;2.13;;
23782;SDS011;12071;50.850;4.446;2023-09-19T06:12:48;6.95;;;1.63;;
23782;SDS011;12071;50.850;4.446;2023-09-19T06:15:14;7.95;;;2.30;;
23782;SDS011;12071;50.850;4.446;2023-09-19T06:17:50;13.02;;;1.95;;
23782;SDS011;12071;50.850;4.446;2023-09-19T06:20:20;17.67;;;2.33;;
23782;SDS011;12071;50.850;4.446;2023-09-19T06:22:47;13.07;;;2.60;;
23782;SDS011;12071;50.850;4.446;2023-09-19T06:25:14;14.65;;;2.30;;
23782;SDS011;12071;50.850;4.446;2023-09-19T06:27:44;16.88;;;2.45;;
23782;SDS011;12071;50.850;4.446;2023-09-19T06:30:15;15.13;;;2.00;;
23782;SDS011;12071;50.850;4.446;2023-09-19T06:32:42;11.18;;;2.25;;
23782;SDS011;12071;50.850;4.446;2023-09-19T06:35:14;14.60;;;2.03;;
23782;SDS011;12071;50.850;4.446;2023-09-19T06:37:41;9.95;;;1.98;;
23782;SDS011;12071;50.850;4.446;2023-09-19T06:40:11;11.43;;;2.30;;
23782;SDS011;12071;50.850;4.446;2023-09-19T06:42:42;11.98;;;2.58;;
23782;SDS011;12071;50.850;4.446;2023-09-19T06:45:14;13.18;;;2.03;;
23782;SDS011;12071;50.850;4.446;2023-09-19T06:47:48;15.27;;;2.72;;
23782;SDS011;12071;50.850;4.446;2023-09-19T06:50:15;7.50;;;1.98;;
23782;SDS011;12071;50.850;4.446;2023-09-19T06:52:43;10.90;;;2.10;;
23782;SDS011;12071;50.850;4.446;2023-09-19T06:55:10;9.98;;;1.88;;
23782;SDS011;12071;50.850;4.446;2023-09-19T06:57:38;10.13;;;1.52;;
23782;SDS011;12071;50.850;4.446;2023-09-19T07:00:09;16.85;;;2.65;;
23782;SDS011;12071;50.850;4.446;2023-09-19T07:03:00;7.72;;;2.03;;
23782;SDS011;12071;50.850;4.446;2023-09-19T07:05:29;8.52;;;1.73;;
23782;SDS011;12071;50.850;4.446;2023-09-19T07:07:56;12.13;;;3.03;;
23782;SDS011;12071;50.850;4.446;2023-09-19T07:10:26;12.77;;;2.58;;
23782;SDS011;12071;50.850;4.446;2023-09-19T07:15:34;9.57;;;2.33;;
23782;SDS011;12071;50.850;4.446;2023-09-19T07:18:12;13.35;;;2.30;;
23782;SDS011;12071;50.850;4.446;2023-09-19T07:20:39;10.90;;;2.10;;
23782;SDS011;12071;50.850;4.446;2023-09-19T07:23:10;14.88;;;2.53;;
23782;SDS011;12071;50.850;4.446;2023-09-19T07:25:39;11.00;;;2.05;;
23782;SDS011;12071;50.850;4.446;2023-09-19T07:28:05;10.02;;;2.30;;
23782;SDS011;12071;50.850;4.446;2023-09-19T07:30:31;15.77;;;2.63;;
23782;SDS011;12071;50.850;4.446;2023-09-19T07:32:57;9.48;;;2.25;;
23782;SDS011;12071;50.850;4.446;2023-09-19T07:35:23;14.00;;;2.40;;
23782;SDS011;12071;50.850;4.446;2023-09-19T07:37:49;10.82;;;2.15;;
23782;SDS011;12071;50.850;4.446;2023-09-19T07:40:18;13.70;;;2.20;;
23782;SDS011;12071;50.850;4.446;2023-09-19T07:42:45;11.15;;;2.28;;
23782;SDS011;12071;50.850;4.446;2023-09-19T07:45:12;6.97;;;1.80;;
23782;SDS011;12071;50.850;4.446;2023-09-19T07:47:45;15.05;;;2.45;;
23782;SDS011;12071;50.850;4.446;2023-09-19T07:50:11;15.07;;;2.40;;
23782;SDS011;12071;50.850;4.446;2023-09-19T07:52:38;13.02;;;2.33;;
23782;SDS011;12071;50.850;4.446;2023-09-19T07:55:06;13.23;;;2.55;;
23782;SDS011;12071;50.850;4.446;2023-09-19T07:57:36;9.80;;;1.85;;
23782;SDS011;12071;50.850;4.446;2023-09-19T08:00:02;14.50;;;2.40;;
23782;SDS011;12071;50.850;4.446;2023-09-19T08:02:33;7.72;;;2.50;;
23782;SDS011;12071;50.850;4.446;2023-09-19T08:05:00;7.85;;;2.22;;
23782;SDS011;12071;50.850;4.446;2023-09-19T08:07:25;11.05;;;2.03;;
23782;SDS011;12071;50.850;4.446;2023-09-19T08:09:51;9.48;;;2.00;;
23782;SDS011;12071;50.850;4.446;2023-09-19T08:12:18;10.32;;;2.17;;
23782;SDS011;12071;50.850;4.446;2023-09-19T08:14:49;12.10;;;2.38;;
23782;SDS011;12071;50.850;4.446;2023-09-19T08:17:15;9.38;;;2.28;;
23782;SDS011;12071;50.850;4.446;2023-09-19T08:19:41;12.57;;;2.10;;
23782;SDS011;12071;50.850;4.446;2023-09-19T08:22:09;15.73;;;3.63;;
23782;SDS011;12071;50.850;4.446;2023-09-19T08:24:36;9.63;;;2.15;;
23782;SDS011;12071;50.850;4.446;2023-09-19T08:27:03;17.70;;;2.67;;
23782;SDS011;12071;50.850;4.446;2023-09-19T08:29:29;14.90;;;3.05;;
23782;SDS011;12071;50.850;4.446;2023-09-19T08:31:56;9.38;;;2.45;;
23782;SDS011;12071;50.850;4.446;2023-09-19T08:34:25;10.68;;;2.00;;
23782;SDS011;12071;50.850;4.446;2023-09-19T08:36:51;15.68;;;2.63;;
23782;SDS011;12071;50.850;4.446;2023-09-19T08:39:21;12.20;;;2.33;;
23782;SDS011;12071;50.850;4.446;2023-09-19T08:41:48;14.70;;;3.17;;
23782;SDS011;12071;50.850;4.446;2023-09-19T08:44:14;14.23;;;2.30;;
23782;SDS011;12071;50.850;4.446;2023-09-19T08:46:41;10.68;;;2.35;;
23782;SDS011;12071;50.850;4.446;2023-09-19T08:49:10;18.05;;;3.20;;
23782;SDS011;12071;50.850;4.446;2023-09-19T08:51:51;14.15;;;2.33;;
23782;SDS011;12071;50.850;4.446;2023-09-19T08:54:32;8.75;;;1.90;;
23782;SDS011;12071;50.850;4.446;2023-09-19T08:57:05;8.95;;;1.50;;
23782;SDS011;12071;50.850;4.446;2023-09-19T08:59:36;7.20;;;1.83;;
23782;SDS011;12071;50.850;4.446;2023-09-19T09:02:08;10.68;;;1.80;;
23782;SDS011;12071;50.850;4.446;2023-09-19T09:04:38;10.60;;;1.73;;
23782;SDS011;12071;50.850;4.446;2023-09-19T09:07:09;13.93;;;2.78;;
23782;SDS011;12071;50.850;4.446;2023-09-19T09:09:39;10.63;;;1.95;;
23782;SDS011;12071;50.850;4.446;2023-09-19T09:12:12;11.07;;;2.10;;
23782;SDS011;12071;50.850;4.446;2023-09-19T09:14:39;11.38;;;2.22;;
23782;SDS011;12071;50.850;4.446;2023-09-19T09:17:05;14.15;;;2.13;;
23782;SDS011;12071;50.850;4.446;2023-09-19T09:19:32;8.60;;;1.67;;
23782;SDS011;12071;50.850;4.446;2023-09-19T09:22:07;10.27;;;1.85;;
23782;SDS011;12071;50.850;4.446;2023-09-19T09:24:33;10.15;;;1.67;;
23782;SDS011;12071;50.850;4.446;2023-09-19T09:27:02;7.38;;;1.80;;
23782;SDS011;12071;50.850;4.446;2023-09-19T09:32:25;5.65;;;1.52;;
23782;SDS011;12071;50.850;4.446;2023-09-19T09:34:59;9.30;;;2.30;;
23782;SDS011;12071;50.850;4.446;2023-09-19T09:37:26;8.63;;;2.28;;
23782;SDS011;12071;50.850;4.446;2023-09-19T09:39:55;10.93;;;1.67;;
23782;SDS011;12071;50.850;4.446;2023-09-19T09:42:44;8.20;;;2.00;;
23782;SDS011;12071;50.850;4.446;2023-09-19T09:45:18;12.95;;;1.90;;
23782;SDS011;12071;50.850;4.446;2023-09-19T09:48:00;9.88;;;2.08;;
23782;SDS011;12071;50.850;4.446;2023-09-19T09:50:46;6.05;;;1.45;;
23782;SDS011;12071;50.850;4.446;2023-09-19T09:58:31;11.25;;;2.28;;
23782;SDS011;12071;50.850;4.446;2023-09-19T10:00:58;7.88;;;1.75;;
23782;SDS011;12071;50.850;4.446;2023-09-19T10:03:34;11.30;;;1.80;;
23782;SDS011;12071;50.850;4.446;2023-09-19T10:06:09;8.20;;;1.70;;
23782;SDS011;12071;50.850;4.446;2023-09-19T10:11:38;6.72;;;1.50;;
23782;SDS011;12071;50.850;4.446;2023-09-19T10:14:08;5.82;;;1.70;;
23782;SDS011;12071;50.850;4.446;2023-09-19T10:16:38;5.95;;;1.67;;
23782;SDS011;12071;50.850;4.446;2023-09-19T10:19:20;7.45;;;1.65;;
23782;SDS011;12071;50.850;4.446;2023-09-19T10:21:55;8.93;;;1.70;;
23782;SDS011;12071;50.850;4.446;2023-09-19T10:24:22;8.95;;;1.75;;
23782;SDS011;12071;50.850;4.446;2023-09-19T10:26:51;7.20;;;1.50;;
23782;SDS011;12071;50.850;4.446;2023-09-19T10:29:19;8.77;;;1.60;;
23782;SDS011;12071;50.850;4.446;2023-09-19T10:31:48;7.47;;;1.92;;
23782;SDS011;12071;50.850;4.446;2023-09-19T10:34:15;7.72;;;1.38;;
23782;SDS011;12071;50.850;4.446;2023-09-19T10:36:45;5.78;;;1.50;;
23782;SDS011;12071;50.850;4.446;2023-09-19T10:39:15;8.35;;;1.55;;
23782;SDS011;12071;50.850;4.446;2023-09-19T10:41:44;5.32;;;1.42;;
23782;SDS011;12071;50.850;4.446;2023-09-19T10:44:19;10.20;;;1.13;;
23782;SDS011;12071;50.850;4.446;2023-09-19T10:49:22;5.43;;;1.23;;
23782;SDS011;12071;50.850;4.446;2023-09-19T10:51:50;4.28;;;0.95;;
23782;SDS011;12071;50.850;4.446;2023-09-19T10:54:21;4.80;;;1.00;;
23782;SDS011;12071;50.850;4.446;2023-09-19T10:56:52;6.00;;;1.40;;
23782;SDS011;12071;50.850;4.446;2023-09-19T10:59:23;5.57;;;1.35;;
23782;SDS011;12071;50.850;4.446;2023-09-19T11:01:59;4.15;;;1.05;;
23782;SDS011;12071;50.850;4.446;2023-09-19T11:04:46;5.47;;;1.13;;
23782;SDS011;12071;50.850;4.446;2023-09-19T11:07:19;4.03;;;1.10;;
23782;SDS011;12071;50.850;4.446;2023-09-19T11:09:51;5.35;;;0.73;;
23782;SDS011;12071;50.850;4.446;2023-09-19T11:15:10;6.25;;;1.15;;
23782;SDS011;12071;50.850;4.446;2023-09-19T11:26:40;4.10;;;0.80;;
23782;SDS011;12071;50.850;4.446;2023-09-19T11:29:30;6.22;;;1.08;;
23782;SDS011;12071;50.850;4.446;2023-09-19T11:31:57;6.10;;;0.85;;
23782;SDS011;12071;50.850;4.446;2023-09-19T11:37:03;6.95;;;1.15;;
23782;SDS011;12071;50.850;4.446;2023-09-19T11:42:53;7.15;;;0.85;;
23782;SDS011;12071;50.850;4.446;2023-09-19T11:48:15;3.40;;;0.90;;
23782;SDS011;12071;50.850;4.446;2023-09-19T11:50:43;2.72;;;0.63;;
23782;SDS011;12071;50.850;4.446;2023-09-19T11:53:12;7.75;;;1.45;;
23782;SDS011;12071;50.850;4.446;2023-09-19T11:55:39;5.40;;;0.70;;
23782;SDS011;12071;50.850;4.446;2023-09-19T11:58:08;5.88;;;0.98;;
23782;SDS011;12071;50.850;4.446;2023-09-19T12:00:34;5.22;;;1.17;;
23782;SDS011;12071;50.850;4.446;2023-09-19T12:03:07;7.63;;;1.02;;
23782;SDS011;12071;50.850;4.446;2023-09-19T12:05:34;2.97;;;0.88;;
23782;SDS011;12071;50.850;4.446;2023-09-19T12:08:02;6.93;;;0.93;;
23782;SDS011;12071;50.850;4.446;2023-09-19T12:10:55;3.50;;;0.85;;
23782;SDS011;12071;50.850;4.446;2023-09-19T12:13:20;5.95;;;1.15;;
23782;SDS011;12071;50.850;4.446;2023-09-19T12:15:49;6.05;;;1.05;;
23782;SDS011;12071;50.850;4.446;2023-09-19T12:18:31;4.55;;;1.08;;
23782;SDS011;12071;50.850;4.446;2023-09-19T12:23:23;5.53;;;0.73;;
23782;SDS011;12071;50.850;4.446;2023-09-19T12:25:50;4.85;;;0.90;;
23782;SDS011;12071;50.850;4.446;2023-09-19T12:28:17;7.32;;;0.82;;
23782;SDS011;12071;50.850;4.446;2023-09-19T12:30:43;3.17;;;0.82;;
23782;SDS011;12071;50.850;4.446;2023-09-19T12:33:20;4.28;;;1.02;;
23782;SDS011;12071;50.850;4.446;2023-09-19T12:35:46;4.45;;;0.70;;
23782;SDS011;12071;50.850;4.446;2023-09-19T12:38:25;4.85;;;0.88;;
23782;SDS011;12071;50.850;4.446;2023-09-19T12:41:01;7.68;;;1.10;;
23782;SDS011;12071;50.850;4.446;2023-09-19T12:43:39;3.30;;;0.90;;
23782;SDS011;12071;50.850;4.446;2023-09-19T12:46:07;5.97;;;1.10;;
23782;SDS011;12071;50.850;4.446;2023-09-19T12:48:33;4.38;;;0.90;;
23782;SDS011;12071;50.850;4.446;2023-09-19T12:53:30;3.10;;;0.90;;
23782;SDS011;12071;50.850;4.446;2023-09-19T12:56:03;7.55;;;1.00;;
23782;SDS011;12071;50.850;4.446;2023-09-19T12:58:33;3.75;;;1.00;;
23782;SDS011;12071;50.850;4.446;2023-09-19T13:01:00;5.15;;;1.00;;
23782;SDS011;12071;50.850;4.446;2023-09-19T13:03:30;6.35;;;0.80;;
23782;SDS011;12071;50.850;4.446;2023-09-19T13:06:01;8.33;;;1.13;;
23782;SDS011;12071;50.850;4.446;2023-09-19T13:13:37;3.80;;;1.00;;
23782;SDS011;12071;50.850;4.446;2023-09-19T13:16:20;7.93;;;1.10;;
23782;SDS011;12071;50.850;4.446;2023-09-19T13:18:52;6.68;;;1.10;;
23782;SDS011;12071;50.850;4.446;2023-09-19T13:21:32;9.65;;;1.00;;
23782;SDS011;12071;50.850;4.446;2023-09-19T13:24:21;7.45;;;1.05;;
23782;SDS011;12071;50.850;4.446;2023-09-19T13:26:51;3.83;;;1.08;;
23782;SDS011;12071;50.850;4.446;2023-09-19T13:29:16;5.63;;;1.08;;
23782;SDS011;12071;50.850;4.446;2023-09-19T13:31:50;4.80;;;1.30;;
23782;SDS011;12071;50.850;4.446;2023-09-19T13:34:18;7.15;;;1.00;;
23782;SDS011;12071;50.850;4.446;2023-09-19T13:36:45;3.28;;;0.98;;
23782;SDS011;12071;50.850;4.446;2023-09-19T13:39:14;4.72;;;1.05;;
23782;SDS011;12071;50.850;4.446;2023-09-19T13:41:47;5.50;;;1.10;;
23782;SDS011;12071;50.850;4.446;2023-09-19T13:44:13;5.72;;;1.00;;
23782;SDS011;12071;50.850;4.446;2023-09-19T13:46:39;4.07;;;1.15;;
23782;SDS011;12071;50.850;4.446;2023-09-19T13:49:05;4.10;;;0.98;;
23782;SDS011;12071;50.850;4.446;2023-09-19T13:51:32;4.90;;;1.30;;
23782;SDS011;12071;50.850;4.446;2023-09-19T13:53:58;3.78;;;0.90;;
23782;SDS011;12071;50.850;4.446;2023-09-19T13:56:26;5.95;;;1.25;;
23782;SDS011;12071;50.850;4.446;2023-09-19T13:58:57;6.25;;;1.10;;
23782;SDS011;12071;50.850;4.446;2023-09-19T14:01:22;5.63;;;1.30;;
23782;SDS011;12071;50.850;4.446;2023-09-19T14:03:48;6.20;;;1.10;;
23782;SDS011;12071;50.850;4.446;2023-09-19T14:06:16;5.28;;;1.20;;
23782;SDS011;12071;50.850;4.446;2023-09-19T14:08:42;9.52;;;1.52;;
23782;SDS011;12071;50.850;4.446;2023-09-19T14:11:12;3.97;;;1.10;;
23782;SDS011;12071;50.850;4.446;2023-09-19T14:13:39;6.25;;;1.20;;
23782;SDS011;12071;50.850;4.446;2023-09-19T14:16:08;8.80;;;1.45;;
23782;SDS011;12071;50.850;4.446;2023-09-19T14:18:34;4.70;;;1.00;;
23782;SDS011;12071;50.850;4.446;2023-09-19T14:21:06;4.32;;;1.30;;
23782;SDS011;12071;50.850;4.446;2023-09-19T14:23:36;4.22;;;0.90;;
23782;SDS011;12071;50.850;4.446;2023-09-19T14:26:02;4.30;;;0.90;;
23782;SDS011;12071;50.850;4.446;2023-09-19T14:28:28;4.45;;;1.23;;
23782;SDS011;12071;50.850;4.446;2023-09-19T14:30:55;6.82;;;1.23;;
23782;SDS011;12071;50.850;4.446;2023-09-19T14:33:21;5.90;;;1.40;;
23782;SDS011;12071;50.850;4.446;2023-09-19T14:35:47;5.85;;;1.08;;
23782;SDS011;12071;50.850;4.446;2023-09-19T14:38:12;6.03;;;1.20;;
23782;SDS011;12071;50.850;4.446;2023-09-19T14:40:39;3.22;;;1.08;;
23782;SDS011;12071;50.850;4.446;2023-09-19T14:43:05;4.90;;;0.90;;
23782;SDS011;12071;50.850;4.446;2023-09-19T14:45:35;8.57;;;1.40;;
23782;SDS011;12071;50.850;4.446;2023-09-19T14:48:01;8.18;;;1.25;;
23782;SDS011;12071;50.850;4.446;2023-09-19T14:50:30;3.22;;;1.20;;
23782;SDS011;12071;50.850;4.446;2023-09-19T14:52:56;5.00;;;1.33;;
23782;SDS011;12071;50.850;4.446;2023-09-19T14:55:23;6.30;;;1.50;;
23782;SDS011;12071;50.850;4.446;2023-09-19T14:57:49;5.80;;;1.10;;
23782;SDS011;12071;50.850;4.446;2023-09-19T15:00:18;4.03;;;1.23;;
23782;SDS011;12071;50.850;4.446;2023-09-19T15:02:45;4.03;;;1.25;;
23782;SDS011;12071;50.850;4.446;2023-09-19T15:05:13;6.80;;;1.48;;
23782;SDS011;12071;50.850;4.446;2023-09-19T15:07:41;5.43;;;1.25;;
23782;SDS011;12071;50.850;4.446;2023-09-19T15:10:07;2.58;;;1.05;;
23782;SDS011;12071;50.850;4.446;2023-09-19T15:12:35;6.15;;;1.48;;
23782;SDS011;12071;50.850;4.446;2023-09-19T15:15:03;7.82;;;1.70;;
23782;SDS011;12071;50.850;4.446;2023-09-19T15:17:33;6.20;;;1.60;;
23782;SDS011;12071;50.850;4.446;2023-09-19T15:19:59;6.35;;;1.92;;
23782;SDS011;12071;50.850;4.446;2023-09-19T15:22:24;9.80;;;1.80;;
23782;SDS011;12071;50.850;4.446;2023-09-19T15:24:51;5.47;;;1.50;;
23782;SDS011;12071;50.850;4.446;2023-09-19T15:27:17;5.80;;;1.40;;
23782;SDS011;12071;50.850;4.446;2023-09-19T15:29:45;3.97;;;1.27;;
23782;SDS011;12071;50.850;4.446;2023-09-19T15:32:11;8.30;;;1.30;;
23782;SDS011;12071;50.850;4.446;2023-09-19T15:34:37;4.75;;;1.50;;
23782;SDS011;12071;50.850;4.446;2023-09-19T15:37:02;6.43;;;1.30;;
23782;SDS011;12071;50.850;4.446;2023-09-19T15:39:31;5.68;;;1.20;;
23782;SDS011;12071;50.850;4.446;2023-09-19T15:42:02;5.45;;;1.58;;
23782;SDS011;12071;50.850;4.446;2023-09-19T15:44:27;6.78;;;1.55;;
23782;SDS011;12071;50.850;4.446;2023-09-19T15:46:53;4.80;;;1.23;;
23782;SDS011;12071;50.850;4.446;2023-09-19T15:49:19;4.22;;;1.15;;